Time;durP1;ratioP1;P1;durP2;ratioP2;P2;SDS_P1;SDS_P2;PMS_P1;PMS_P2;Temp;Humidity;BMP_temperature;BMP_pressure;BME280_temperature;BME280_humidity;BME280_pressure;Samples;Min_cycle;Max_cycle;Signal;HPM_P1;HPM_P2
2022/07/26 00:01:54;;;;;;;;;4.25;2.00;;;;;22.47;39.49;101245.25;5007025;28;45395;-54
2022/07/26 00:04:20;;;;;;;;;1.00;1.00;;;;;22.43;38.88;101251.72;4999690;28;45444;-53
2022/07/26 00:06:45;;;;;;;;;2.00;2.00;;;;;22.41;39.15;101249.13;4999447;28;45274;-53
2022/07/26 00:09:11;;;;;;;;;1.00;1.00;;;;;22.40;38.87;101255.44;4999256;28;46325;-52
2022/07/26 00:11:36;;;;;;;;;1.50;1.50;;;;;22.37;39.25;101247.59;4999395;28;45338;-53
2022/07/26 00:14:03;;;;;;;;;2.00;2.00;;;;;22.35;39.24;101247.66;4999673;28;45539;-52
2022/07/26 00:16:29;;;;;;;;;3.25;2.00;;;;;22.35;39.38;101252.13;4999371;28;45235;-53
2022/07/26 00:18:55;;;;;;;;;4.00;3.00;;;;;22.33;39.65;101254.03;4999338;28;45219;-54
2022/07/26 00:21:21;;;;;;;;;1.25;1.00;;;;;22.27;39.37;101241.84;4999421;28;45188;-55
2022/07/26 00:23:46;;;;;;;;;2.00;1.75;;;;;22.27;39.46;101257.91;4999199;28;45443;-55
2022/07/26 00:26:11;;;;;;;;;0.75;0.75;;;;;22.23;39.27;101259.03;4999383;28;45400;-56
2022/07/26 00:28:37;;;;;;;;;1.00;1.00;;;;;22.22;39.51;101262.66;4997903;28;46583;-56
2022/07/26 00:31:03;;;;;;;;;2.50;2.50;;;;;22.18;39.68;101253.06;4999038;28;45193;-56
2022/07/26 00:33:28;;;;;;;;;1.50;1.25;;;;;22.15;40.27;101247.88;4998278;28;45303;-58
2022/07/26 00:35:53;;;;;;;;;5.00;2.00;;;;;22.12;39.95;101253.41;4999074;28;45389;-56
2022/07/26 00:38:19;;;;;;;;;1.00;1.00;;;;;22.07;40.26;101251.84;4999680;28;45324;-56
2022/07/26 00:40:44;;;;;;;;;2.75;2.00;;;;;22.03;39.92;101247.59;5002490;28;45417;-56
2022/07/26 00:43:09;;;;;;;;;1.00;1.00;;;;;22.02;39.84;101251.22;5002795;28;45329;-57
2022/07/26 00:45:35;;;;;;;;;2.00;0.00;;;;;22.00;40.43;101253.13;5002553;28;45305;-57
2022/07/26 00:48:00;;;;;;;;;2.00;0.00;;;;;22.00;39.79;101249.56;5002445;28;45364;-57
2022/07/26 00:50:25;;;;;;;;;1.00;1.00;;;;;21.96;40.08;101246.22;5010456;28;45253;-57
2022/07/26 00:52:51;;;;;;;;;1.00;1.00;;;;;21.95;40.00;101252.50;5002715;28;45294;-56
2022/07/26 00:55:17;;;;;;;;;2.50;1.00;;;;;21.91;40.43;101250.94;5002053;28;45312;-57
2022/07/26 00:57:43;;;;;;;;;0.50;0.50;;;;;21.89;40.33;101256.38;5002518;28;45431;-57
2022/07/26 01:00:13;;;;;;;;;4.00;3.00;;;;;21.82;40.10;101251.44;5002231;28;45488;-57
2022/07/26 01:02:38;;;;;;;;;1.00;1.00;;;;;21.79;40.35;101251.63;5009600;28;45336;-57
2022/07/26 01:05:05;;;;;;;;;1.75;1.50;;;;;21.75;40.69;101248.22;5002023;28;45329;-56
2022/07/26 01:07:31;;;;;;;;;0.75;0.75;;;;;21.77;40.53;101256.16;5002141;28;46318;-56
2022/07/26 01:09:56;;;;;;;;;3.00;1.50;;;;;21.72;40.75;101256.41;5001685;28;45308;-58
2022/07/26 01:12:21;;;;;;;;;1.00;1.00;;;;;21.71;40.94;101246.63;5002224;28;45242;-56
2022/07/26 01:14:47;;;;;;;;;1.00;1.00;;;;;21.64;40.50;101251.47;5002110;28;45309;-60
2022/07/26 01:17:13;;;;;;;;;1.25;1.00;;;;;21.62;40.89;101245.31;5001669;28;46339;-55
2022/07/26 01:19:40;;;;;;;;;2.00;1.00;;;;;21.58;41.00;101247.31;5001982;28;45272;-54
2022/07/26 01:22:05;;;;;;;;;1.50;1.00;;;;;21.57;40.92;101253.59;5002036;28;45238;-57
2022/07/26 01:24:30;;;;;;;;;0.75;0.25;;;;;21.54;41.17;101247.50;5001652;28;45405;-55
2022/07/26 01:26:56;;;;;;;;;2.50;2.00;;;;;21.51;40.88;101247.66;5001709;28;45328;-55
2022/07/26 01:29:23;;;;;;;;;1.00;1.00;;;;;21.51;41.65;101242.31;5001945;28;45252;-55
2022/07/26 01:31:49;;;;;;;;;1.25;1.00;;;;;21.47;41.01;101238.97;5001721;28;45363;-53
2022/07/26 01:34:14;;;;;;;;;1.00;1.00;;;;;21.47;41.67;101246.09;5001647;28;45353;-52
2022/07/26 01:36:40;;;;;;;;;2.00;0.00;;;;;21.43;41.16;101246.28;5001487;28;45428;-52
2022/07/26 01:39:05;;;;;;;;;1.50;1.00;;;;;21.39;41.64;101242.00;5000114;28;45502;-53
2022/07/26 01:41:31;;;;;;;;;3.00;1.00;;;;;21.39;41.18;101243.84;5001698;28;45362;-51
2022/07/26 01:43:56;;;;;;;;;1.00;1.00;;;;;21.36;41.06;101244.00;5001218;28;45490;-53
2022/07/26 01:46:21;;;;;;;;;0.75;0.75;;;;;21.29;41.23;101231.91;5001350;28;46186;-54
2022/07/26 01:48:47;;;;;;;;;2.00;2.00;;;;;21.27;41.66;101245.34;5001055;28;45354;-51
2022/07/26 01:51:12;;;;;;;;;0.00;0.00;;;;;21.27;41.52;101240.84;5016288;28;45358;-54
2022/07/26 01:53:37;;;;;;;;;0.25;0.25;;;;;21.24;41.83;101241.03;5008171;28;45423;-52
2022/07/26 01:56:03;;;;;;;;;1.00;1.00;;;;;21.23;41.70;101238.41;5001295;28;45428;-54
2022/07/26 01:58:29;;;;;;;;;0.25;0.00;;;;;21.22;41.86;101236.66;5001450;28;45195;-54
2022/07/26 02:00:54;;;;;;;;;1.00;1.00;;;;;21.20;41.77;101238.56;5001597;28;45190;-54
2022/07/26 02:03:19;;;;;;;;;2.00;2.00;;;;;21.16;42.15;101243.22;5007557;28;45242;-54
2022/07/26 02:05:44;;;;;;;;;1.50;1.25;;;;;21.16;41.90;101243.22;4999692;28;47411;-54
2022/07/26 02:08:10;;;;;;;;;1.00;1.00;;;;;21.16;42.07;101237.88;5001002;28;45267;-53
2022/07/26 02:13:20;;;;;;;;;1.25;1.00;;;;;21.13;42.04;101248.72;5001205;28;45400;-53
2022/07/26 02:15:45;;;;;;;;;2.00;1.00;;;;;21.14;42.06;101245.06;5000813;28;46276;-54
2022/07/26 02:18:10;;;;;;;;;1.25;1.00;;;;;21.14;41.65;101245.06;5000999;28;45214;-50
2022/07/26 02:20:36;;;;;;;;;1.75;1.75;;;;;21.13;41.35;101242.50;5001063;28;45227;-53
2022/07/26 02:23:03;;;;;;;;;0.00;0.00;;;;;21.09;42.16;101242.66;5000866;28;45515;-50
2022/07/26 02:25:29;;;;;;;;;1.00;1.00;;;;;21.07;42.56;101243.69;5000610;28;45485;-53
2022/07/26 02:27:54;;;;;;;;;2.50;1.50;;;;;21.08;42.32;101248.94;5000652;28;45400;-53
2022/07/26 02:30:19;;;;;;;;;2.00;2.00;;;;;21.06;42.26;101244.63;4999600;28;45323;-52
2022/07/26 02:32:46;;;;;;;;;0.00;0.00;;;;;21.05;41.94;101251.75;5000499;28;45618;-52
2022/07/26 02:35:12;;;;;;;;;1.00;1.00;;;;;21.06;41.95;101257.97;5000244;28;45298;-52
2022/07/26 02:37:39;;;;;;;;;3.00;1.25;;;;;21.05;42.18;101251.75;5000512;28;45399;-53
2022/07/26 02:40:05;;;;;;;;;2.00;1.00;;;;;21.02;42.73;101257.25;5000568;28;45457;-52
2022/07/26 02:42:30;;;;;;;;;3.00;2.00;;;;;21.01;42.72;101254.69;5015858;28;46123;-52
2022/07/26 02:44:56;;;;;;;;;2.00;2.00;;;;;21.00;42.43;101252.94;5000363;28;46214;-53
2022/07/26 02:47:21;;;;;;;;;1.50;1.50;;;;;20.97;42.32;101250.41;5000405;28;45252;-52
2022/07/26 02:49:46;;;;;;;;;3.75;3.75;;;;;20.94;42.63;101248.75;5003602;28;45404;-53
2022/07/26 02:52:11;;;;;;;;;1.00;0.50;;;;;20.91;42.90;101255.13;5033478;28;45472;-53
2022/07/26 02:54:37;;;;;;;;;2.50;2.50;;;;;20.89;43.19;101250.78;5019996;28;46016;-52
2022/07/26 02:57:03;;;;;;;;;1.50;1.50;;;;;20.84;43.33;101251.03;5020126;28;45250;-52
2022/07/26 02:59:28;;;;;;;;;3.00;1.50;;;;;20.81;43.04;101261.00;5020371;28;45381;-53
2022/07/26 03:01:54;;;;;;;;;2.75;2.00;;;;;20.77;43.76;101261.13;5016170;28;45506;-52
2022/07/26 03:04:19;;;;;;;;;1.00;1.00;;;;;20.74;43.12;101258.63;4998242;28;46162;-52
2022/07/26 03:06:44;;;;;;;;;1.75;1.00;;;;;20.72;43.76;101256.97;4999909;28;45325;-52
2022/07/26 03:09:10;;;;;;;;;2.00;1.00;;;;;20.70;43.21;101261.47;5000196;28;45897;-54
2022/07/26 03:11:35;;;;;;;;;1.00;1.00;;;;;20.65;43.69;101259.03;5000164;28;45523;-54
2022/07/26 03:14:00;;;;;;;;;1.75;1.50;;;;;20.63;43.96;101259.09;5000217;28;46113;-53
2022/07/26 03:16:26;;;;;;;;;2.00;2.00;;;;;20.64;43.29;101249.31;4999895;28;45375;-50
2022/07/26 03:18:51;;;;;;;;;1.00;1.00;;;;;20.61;43.59;101249.44;5000358;28;45288;-53
2022/07/26 03:21:16;;;;;;;;;1.25;1.00;;;;;20.59;43.93;101254.88;5000069;28;45290;-53
2022/07/26 03:23:42;;;;;;;;;2.00;0.25;;;;;20.58;43.97;101253.13;4999837;28;46346;-53
2022/07/26 03:26:07;;;;;;;;;1.00;1.00;;;;;20.56;44.11;101264.81;5000136;28;45249;-52
2022/07/26 03:28:34;;;;;;;;;4.00;2.75;;;;;20.54;43.52;101253.34;5000160;28;45318;-51
2022/07/26 03:31:00;;;;;;;;;2.00;2.00;;;;;20.51;43.90;101261.50;4999815;28;45283;-52
2022/07/26 03:33:26;;;;;;;;;1.00;1.00;;;;;20.51;43.80;101256.16;4998643;28;47429;-54
2022/07/26 03:35:52;;;;;;;;;2.25;2.25;;;;;20.49;43.93;101263.38;4998551;28;45174;-54
2022/07/26 03:38:17;;;;;;;;;3.00;2.00;;;;;20.48;44.05;101266.97;5015059;28;45274;-52
2022/07/26 03:40:42;;;;;;;;;2.00;1.00;;;;;20.46;44.11;101267.94;4999902;28;45147;-53
2022/07/26 03:43:08;;;;;;;;;3.00;1.25;;;;;20.43;44.08;101268.06;4999653;28;45289;-54
2022/07/26 03:45:33;;;;;;;;;2.00;2.00;;;;;20.41;44.33;101261.94;4999923;28;45600;-54
2022/07/26 03:47:59;;;;;;;;;2.25;2.25;;;;;20.41;44.13;101261.06;4999593;28;45460;-52
2022/07/26 03:50:24;;;;;;;;;1.75;1.75;;;;;20.42;44.33;101274.34;5007831;28;45361;-54
2022/07/26 03:52:49;;;;;;;;;1.50;1.50;;;;;20.44;44.51;101271.63;5012905;28;45411;-54
2022/07/26 03:57:58;;;;;;;;;2.00;2.00;;;;;20.46;44.30;101283.06;4999892;28;45365;-52
2022/07/26 04:00:24;;;;;;;;;3.00;2.50;;;;;20.47;44.55;101279.47;4999476;28;45332;-54
2022/07/26 04:02:49;;;;;;;;;2.75;2.25;;;;;20.48;44.25;101277.66;5006958;28;46184;-53
2022/07/26 04:05:15;;;;;;;;;3.00;3.00;;;;;20.49;44.65;101276.72;4998151;28;45385;-52
2022/07/26 04:07:44;;;;;;;;;3.00;2.50;;;;;20.52;44.32;101276.59;4999828;28;45242;-53
2022/07/26 04:10:11;;;;;;;;;3.25;2.00;;;;;20.53;44.74;101283.66;4999153;28;45526;-53
2022/07/26 04:12:36;;;;;;;;;3.00;2.00;;;;;20.54;44.20;101277.38;5000753;28;46969;-52
2022/07/26 04:15:02;;;;;;;;;3.00;1.25;;;;;20.55;44.27;101279.09;5002697;28;45420;-53
2022/07/26 04:17:27;;;;;;;;;2.00;2.00;;;;;20.58;44.66;101284.31;5002836;28;45273;-51
2022/07/26 04:19:53;;;;;;;;;2.25;1.25;;;;;20.57;44.83;101283.44;5002345;28;47380;-52
2022/07/26 04:22:18;;;;;;;;;2.25;2.00;;;;;20.59;44.60;101280.69;5002723;28;45163;-52
2022/07/26 04:24:43;;;;;;;;;5.50;4.00;;;;;20.56;44.97;101280.84;5002358;28;45451;-53
2022/07/26 04:27:08;;;;;;;;;3.75;2.50;;;;;20.60;44.82;101285.09;5002902;28;45325;-53
2022/07/26 04:29:34;;;;;;;;;2.25;2.25;;;;;20.60;44.61;101279.75;5002485;28;45669;-52
2022/07/26 04:31:59;;;;;;;;;2.00;2.00;;;;;20.60;45.10;101285.97;5002457;28;47046;-54
2022/07/26 04:34:24;;;;;;;;;2.00;2.00;;;;;20.60;44.42;101283.31;5002387;28;45369;-53
2022/07/26 04:36:50;;;;;;;;;2.00;2.00;;;;;20.61;44.85;101279.66;5002719;28;45385;-53
2022/07/26 04:39:15;;;;;;;;;5.00;2.00;;;;;20.62;45.08;101280.53;5002365;28;45305;-53
2022/07/26 04:41:40;;;;;;;;;5.50;3.25;;;;;20.63;45.23;101279.63;5002350;28;46252;-51
2022/07/26 04:44:06;;;;;;;;;7.25;7.25;;;;;20.65;45.24;101282.19;5002384;28;45416;-53
2022/07/26 04:46:31;;;;;;;;;6.25;5.75;;;;;20.67;45.08;101278.53;5002524;28;45373;-53
2022/07/26 04:48:56;;;;;;;;;6.50;6.50;;;;;20.69;44.98;101282.00;5002292;28;45336;-51
2022/07/26 04:51:22;;;;;;;;;3.50;2.00;;;;;20.68;44.69;101290.06;5018089;28;45386;-51
2022/07/26 04:53:47;;;;;;;;;5.00;4.00;;;;;20.72;44.37;101292.53;5007707;28;45281;-51
2022/07/26 04:56:13;;;;;;;;;2.00;2.00;;;;;20.75;44.76;101297.75;5002388;28;45393;-52
2022/07/26 04:58:38;;;;;;;;;6.50;6.00;;;;;20.76;44.54;101296.78;5002262;28;45463;-54
2022/07/26 05:01:03;;;;;;;;;5.00;3.00;;;;;20.80;44.90;101294.00;5003620;28;45319;-52
2022/07/26 05:03:29;;;;;;;;;4.75;4.00;;;;;20.85;44.50;101299.97;5023260;28;45280;-54
2022/07/26 05:05:54;;;;;;;;;3.50;2.00;;;;;20.88;44.48;101299.81;5002356;28;45223;-54
2022/07/26 05:08:19;;;;;;;;;8.00;4.00;;;;;20.90;44.39;101300.59;5002010;28;45230;-53
2022/07/26 05:10:46;;;;;;;;;3.50;3.00;;;;;20.93;45.09;101308.47;5002111;28;46119;-53
2022/07/26 05:13:11;;;;;;;;;3.75;3.25;;;;;20.94;44.95;101303.06;5002199;28;45164;-53
2022/07/26 05:15:37;;;;;;;;;3.00;3.00;;;;;20.98;44.94;101305.56;5001995;28;45218;-48
2022/07/26 05:18:07;;;;;;;;;5.25;3.00;;;;;20.99;44.77;101308.16;5001752;28;45423;-53
2022/07/26 05:20:34;;;;;;;;;2.50;2.00;;;;;21.01;44.40;101316.13;5001849;28;45386;-53
2022/07/26 05:22:59;;;;;;;;;2.00;2.00;;;;;21.01;44.65;101308.97;4999879;28;45381;-52
2022/07/26 05:25:25;;;;;;;;;3.25;3.00;;;;;21.04;44.76;101315.97;5001061;28;45417;-53
2022/07/26 05:27:50;;;;;;;;;3.00;3.00;;;;;21.04;45.25;101318.63;5001880;28;45187;-52
2022/07/26 05:30:16;;;;;;;;;2.00;2.00;;;;;20.96;45.11;101299.47;5000080;28;46384;-53
2022/07/26 05:32:41;;;;;;;;;5.00;3.00;;;;;21.05;44.62;101315.03;5001539;28;45179;-54
2022/07/26 05:35:07;;;;;;;;;3.00;3.00;;;;;21.04;44.81;101316.84;5001930;28;45416;-50
2022/07/26 05:37:34;;;;;;;;;6.00;4.00;;;;;21.06;44.80;101317.59;5016003;28;45478;-54
2022/07/26 05:39:59;;;;;;;;;3.00;3.00;;;;;21.09;44.93;101317.47;5021029;28;47019;-54
2022/07/26 05:42:25;;;;;;;;;3.00;3.00;;;;;21.09;45.07;101317.47;5021228;28;45348;-53
2022/07/26 05:44:51;;;;;;;;;1.50;1.25;;;;;21.10;45.25;101316.50;5021831;28;45482;-50
2022/07/26 05:47:16;;;;;;;;;3.25;2.00;;;;;21.06;45.25;101316.75;5021164;28;45315;-53
2022/07/26 05:49:41;;;;;;;;;5.00;3.75;;;;;21.09;45.47;101311.25;5021211;28;46186;-53
2022/07/26 05:52:07;;;;;;;;;2.75;2.00;;;;;21.07;44.81;101305.97;5020629;28;45245;-53
2022/07/26 05:54:33;;;;;;;;;1.50;1.50;;;;;21.10;45.00;101321.84;5001407;28;45348;-52
2022/07/26 05:56:58;;;;;;;;;4.50;4.50;;;;;21.10;45.51;101313.84;5001097;28;45427;-53
2022/07/26 05:59:23;;;;;;;;;2.50;2.00;;;;;21.11;45.43;101310.22;5001148;28;46093;-53
2022/07/26 06:01:49;;;;;;;;;4.75;2.50;;;;;21.15;45.30;101321.63;5008339;28;45427;-50
2022/07/26 06:04:15;;;;;;;;;2.00;2.00;;;;;21.15;44.92;101320.78;5001531;28;45253;-51
2022/07/26 06:06:43;;;;;;;;;4.00;2.50;;;;;21.16;45.03;101325.19;5001218;28;45396;-50
2022/07/26 06:09:08;;;;;;;;;5.25;3.75;;;;;21.14;45.58;101319.03;5000986;28;45411;-54
2022/07/26 06:11:34;;;;;;;;;6.00;3.00;;;;;21.16;45.27;101322.53;5000952;28;45365;-53
2022/07/26 06:13:59;;;;;;;;;5.00;5.00;;;;;21.14;46.04;101327.06;5001486;28;45297;-54
2022/07/26 06:16:24;;;;;;;;;2.50;2.50;;;;;21.15;45.85;101326.97;5000930;28;45286;-53
2022/07/26 06:18:50;;;;;;;;;2.75;2.50;;;;;21.16;45.42;101330.53;5001072;28;46028;-50
2022/07/26 06:21:15;;;;;;;;;4.25;4.00;;;;;21.17;45.89;101326.91;5000790;28;45276;-52
2022/07/26 06:23:40;;;;;;;;;4.50;3.25;;;;;21.19;46.03;101335.72;5000910;28;45329;-50
2022/07/26 06:26:06;;;;;;;;;2.00;2.00;;;;;21.21;45.42;101342.72;5000896;28;45465;-52
2022/07/26 06:28:32;;;;;;;;;6.75;5.25;;;;;21.22;45.45;101335.53;5000756;28;46109;-53
2022/07/26 06:30:57;;;;;;;;;5.00;4.00;;;;;21.21;45.50;101341.84;4999202;28;45521;-53
2022/07/26 06:33:22;;;;;;;;;3.75;3.00;;;;;21.23;45.90;101342.63;5001036;28;45304;-53
2022/07/26 06:35:47;;;;;;;;;4.50;4.50;;;;;21.24;46.00;101337.22;4999407;28;46057;-51
2022/07/26 06:38:13;;;;;;;;;5.25;5.25;;;;;21.27;45.54;101342.41;5000755;28;45311;-52
2022/07/26 06:40:38;;;;;;;;;3.75;3.75;;;;;21.25;45.92;101348.78;5000623;28;45303;-53
2022/07/26 06:43:03;;;;;;;;;5.00;5.00;;;;;21.30;45.92;101344.06;5000721;28;45295;-52
2022/07/26 06:45:29;;;;;;;;;3.25;2.00;;;;;21.32;45.72;101350.22;5000834;28;45329;-53
2022/07/26 06:47:54;;;;;;;;;3.00;3.00;;;;;21.34;45.66;101342.09;5000339;28;46053;-53
2022/07/26 06:50:21;;;;;;;;;4.00;3.75;;;;;21.37;45.52;101349.94;5008575;28;45311;-50
2022/07/26 06:52:46;;;;;;;;;4.75;3.00;;;;;21.38;45.89;101346.34;5013656;28;45403;-53
2022/07/26 06:55:11;;;;;;;;;4.25;3.00;;;;;21.43;46.14;101347.88;5000174;28;45882;-49
2022/07/26 06:57:38;;;;;;;;;4.75;3.25;;;;;21.46;45.35;101343.28;5000261;28;45346;-54
2022/07/26 07:00:04;;;;;;;;;5.00;4.25;;;;;21.48;45.46;101346.75;5000432;28;45436;-52
2022/07/26 07:02:30;;;;;;;;;3.75;3.25;;;;;21.51;45.51;101343.91;5007675;28;45537;-52
2022/07/26 07:04:55;;;;;;;;;5.50;4.00;;;;;21.52;45.64;101346.53;5000232;28;45418;-57
2022/07/26 07:07:20;;;;;;;;;4.00;2.75;;;;;21.56;45.45;101352.63;4999010;28;46207;-53
2022/07/26 07:09:46;;;;;;;;;4.25;4.25;;;;;21.60;45.73;101359.53;4998818;28;45430;-53
2022/07/26 07:12:11;;;;;;;;;6.75;4.50;;;;;21.62;45.47;101348.75;5015707;28;45530;-53
2022/07/26 07:14:37;;;;;;;;;4.75;3.25;;;;;21.66;45.77;101353.00;5000259;28;45325;-52
2022/07/26 07:17:03;;;;;;;;;4.75;3.00;;;;;21.66;45.46;101353.88;4998542;28;47110;-51
2022/07/26 07:19:28;;;;;;;;;2.25;2.00;;;;;21.66;45.62;101361.91;5000122;28;45384;-53
2022/07/26 07:21:54;;;;;;;;;6.00;4.00;;;;;21.67;46.15;101365.44;5000299;28;45336;-53
2022/07/26 07:24:20;;;;;;;;;5.25;4.00;;;;;21.66;45.77;101359.22;4999803;28;45358;-53
2022/07/26 07:26:45;;;;;;;;;5.75;3.00;;;;;21.65;45.68;101354.81;4999960;28;46286;-53
2022/07/26 07:29:14;;;;;;;;;6.25;3.50;;;;;21.63;45.86;101356.69;5000045;28;45321;-53
2022/07/26 07:31:40;;;;;;;;;6.00;4.75;;;;;21.67;45.83;101355.63;5000043;28;45584;-52
2022/07/26 07:34:06;;;;;;;;;4.50;4.25;;;;;21.68;45.68;101365.34;4999920;28;45530;-53
2022/07/26 07:36:31;;;;;;;;;3.00;3.00;;;;;21.71;45.30;101362.53;4999657;28;45354;-53
2022/07/26 07:38:56;;;;;;;;;4.00;3.00;;;;;21.69;45.62;101355.53;4999758;28;45323;-53
2022/07/26 07:41:21;;;;;;;;;4.75;3.25;;;;;21.72;45.88;101364.25;5000017;28;45309;-53
2022/07/26 07:43:47;;;;;;;;;4.50;4.25;;;;;21.74;45.49;101366.84;4999960;28;45454;-53
2022/07/26 07:46:12;;;;;;;;;3.75;3.75;;;;;21.78;45.54;101368.41;4999674;28;46274;-52
2022/07/26 07:48:39;;;;;;;;;3.25;2.25;;;;;21.80;45.70;101361.19;5002868;28;45327;-51
2022/07/26 07:51:06;;;;;;;;;3.50;3.50;;;;;21.80;45.54;101371.00;5017106;28;45264;-54
2022/07/26 07:53:31;;;;;;;;;2.00;2.00;;;;;21.83;45.26;101363.69;5010719;28;45238;-54
2022/07/26 07:55:57;;;;;;;;;5.25;3.00;;;;;21.85;45.81;101363.63;5001721;28;47248;-53
2022/07/26 07:58:22;;;;;;;;;3.50;2.25;;;;;21.86;46.00;101350.19;5003197;28;45265;-53
2022/07/26 08:00:47;;;;;;;;;3.00;2.75;;;;;21.84;45.73;101362.75;5003117;28;45404;-53
2022/07/26 08:03:12;;;;;;;;;4.25;3.25;;;;;21.85;45.29;101358.28;5010998;28;45604;-53
2022/07/26 08:05:38;;;;;;;;;5.00;5.00;;;;;21.88;45.36;101361.63;5002976;28;46278;-53
2022/07/26 08:08:03;;;;;;;;;3.25;3.25;;;;;21.92;45.72;101365.03;5002989;28;45214;-53
2022/07/26 08:10:29;;;;;;;;;4.00;4.00;;;;;21.94;45.37;101359.59;5003032;28;45324;-54
2022/07/26 08:12:55;;;;;;;;;7.00;4.25;;;;;21.99;45.50;101355.75;5002983;28;45471;-54
2022/07/26 08:15:22;;;;;;;;;3.75;3.75;;;;;22.03;45.75;101362.66;5002996;28;46215;-51
2022/07/26 08:17:48;;;;;;;;;6.75;4.00;;;;;22.08;45.24;101362.41;5002712;28;45255;-53
2022/07/26 08:20:13;;;;;;;;;5.00;3.00;;;;;22.13;45.76;101363.03;5002936;28;45491;-54
2022/07/26 08:22:39;;;;;;;;;4.00;4.00;;;;;22.19;44.98;101367.22;5002726;28;45557;-53
2022/07/26 08:25:04;;;;;;;;;10.25;8.00;;;;;22.25;45.46;101369.56;5002350;28;46193;-53
2022/07/26 08:27:30;;;;;;;;;5.00;2.50;;;;;22.29;45.07;101373.78;5002779;28;45251;-53
2022/07/26 08:29:55;;;;;;;;;3.25;3.25;;;;;22.35;44.96;101377.94;5001511;28;45223;-52
2022/07/26 08:32:20;;;;;;;;;6.75;4.25;;;;;22.38;44.65;101376.00;5002658;28;45194;-50
2022/07/26 08:34:46;;;;;;;;;3.00;3.00;;;;;22.43;45.05;101373.09;5002548;28;45924;-52
2022/07/26 08:37:11;;;;;;;;;4.25;4.00;;;;;22.42;44.32;101379.38;5002726;28;45242;-53
2022/07/26 08:39:36;;;;;;;;;5.00;3.75;;;;;22.47;44.87;101371.97;5002548;28;45226;-53
2022/07/26 08:42:03;;;;;;;;;4.50;4.50;;;;;22.50;45.11;101374.47;5002502;28;45293;-50
2022/07/26 08:44:28;;;;;;;;;5.00;3.00;;;;;22.54;44.93;101377.84;5002388;28;46154;-54
2022/07/26 08:46:54;;;;;;;;;3.25;3.25;;;;;22.60;44.93;101380.19;5002305;28;45368;-53
2022/07/26 08:49:19;;;;;;;;;3.00;2.50;;;;;22.65;44.37;101387.97;5002873;28;45447;-52
2022/07/26 08:51:45;;;;;;;;;7.25;4.00;;;;;22.69;44.56;101382.38;5021543;28;45517;-54
2022/07/26 08:54:12;;;;;;;;;4.00;3.50;;;;;22.73;44.66;101383.06;5004551;28;46897;-53
2022/07/26 08:56:48;;;;;;;;;2.50;2.00;;;;;22.78;44.63;101382.78;5002297;28;45325;-54
2022/07/26 08:59:16;;;;;;;;;3.00;3.00;;;;;22.85;44.15;101377.00;5000996;28;45431;-50
2022/07/26 09:01:59;;;;;;;;;2.00;2.00;;;;;22.88;44.08;101381.34;5009074;28;45226;-53
2022/07/26 09:04:27;;;;;;;;;3.00;2.25;;;;;22.96;44.46;101381.78;5002189;28;46328;-54
2022/07/26 09:07:04;;;;;;;;;2.75;2.00;;;;;23.05;44.22;101375.03;5001974;28;45238;-52
2022/07/26 09:09:32;;;;;;;;;4.00;4.00;;;;;23.12;43.66;101380.88;5000566;28;45381;-54
2022/07/26 09:11:58;;;;;;;;;2.25;2.25;;;;;23.17;43.79;101378.88;5001864;28;45443;-53
2022/07/26 09:14:35;;;;;;;;;4.50;3.75;;;;;23.21;43.54;101383.09;5002036;28;46325;-51
2022/07/26 09:17:00;;;;;;;;;3.75;3.00;;;;;23.25;43.43;101395.34;5001589;28;45209;-53
2022/07/26 09:19:26;;;;;;;;;4.75;3.00;;;;;23.31;43.56;101394.16;5000695;28;45356;-55
2022/07/26 09:21:54;;;;;;;;;3.00;3.00;;;;;23.31;43.27;101389.66;5001851;28;45610;-54
2022/07/26 09:24:48;;;;;;;;;3.00;3.00;;;;;23.33;43.47;101398.47;5001570;28;46978;-53
2022/07/26 09:27:16;;;;;;;;;3.00;2.25;;;;;23.36;43.02;101395.59;4988731;28;45538;-52
2022/07/26 09:29:42;;;;;;;;;5.25;3.50;;;;;23.40;43.02;101390.09;5001764;28;45324;-54
2022/07/26 09:32:27;;;;;;;;;3.25;3.25;;;;;23.42;42.86;101401.56;5001676;28;45502;-54
2022/07/26 09:35:11;;;;;;;;;4.25;3.00;;;;;23.47;42.56;101403.03;5001465;28;46495;-49
2022/07/26 09:37:39;;;;;;;;;5.25;4.00;;;;;23.49;42.69;101402.94;5001729;28;45395;-52
2022/07/26 09:40:08;;;;;;;;;3.50;3.50;;;;;23.47;42.46;101408.41;5001508;28;45253;-53
2022/07/26 09:42:34;;;;;;;;;2.75;2.75;;;;;23.52;42.77;101410.78;5001394;28;45348;-52
2022/07/26 09:44:59;;;;;;;;;4.00;2.50;;;;;23.53;42.79;101399.13;5001525;28;45497;-54
2022/07/26 09:47:38;;;;;;;;;3.00;3.00;;;;;23.59;42.80;101414.84;5001257;28;45455;-55
2022/07/26 09:50:15;;;;;;;;;6.00;5.00;;;;;23.58;42.47;101413.13;5006970;28;45488;-53
2022/07/26 09:53:06;;;;;;;;;1.25;1.25;;;;;23.61;42.62;101410.28;5018597;28;45578;-54
2022/07/26 09:55:34;;;;;;;;;3.50;3.00;;;;;23.60;42.63;101416.59;5021087;28;47258;-54
2022/07/26 09:58:02;;;;;;;;;2.00;2.00;;;;;23.68;42.60;101413.44;5021053;28;45244;-51
2022/07/26 10:00:29;;;;;;;;;4.25;3.75;;;;;23.67;42.21;101415.28;5021046;28;45241;-54
2022/07/26 10:02:55;;;;;;;;;4.50;3.00;;;;;23.72;42.41;101419.50;5011481;28;45344;-55
2022/07/26 10:05:20;;;;;;;;;2.00;2.00;;;;;23.77;42.28;101414.72;5001115;28;46126;-53
2022/07/26 10:07:48;;;;;;;;;2.00;2.00;;;;;23.77;42.14;101422.78;5001014;28;45380;-52
2022/07/26 10:10:20;;;;;;;;;4.00;2.00;;;;;23.80;41.77;101422.59;5000934;28;45349;-55
2022/07/26 10:12:49;;;;;;;;;3.00;3.00;;;;;23.80;42.05;101423.47;4999797;28;45539;-52
2022/07/26 10:15:45;;;;;;;;;3.50;2.25;;;;;23.84;41.89;101434.88;5000882;28;46099;-53
2022/07/26 10:18:33;;;;;;;;;3.00;3.00;;;;;23.86;41.84;101427.59;4999093;28;45246;-53
2022/07/26 10:20:58;;;;;;;;;3.50;2.25;;;;;23.89;41.69;101421.19;5000949;28;45455;-53
2022/07/26 10:23:40;;;;;;;;;2.00;2.00;;;;;23.92;41.71;101432.63;5000667;28;45515;-51
2022/07/26 10:26:09;;;;;;;;;4.00;3.00;;;;;23.97;41.67;101430.53;5015969;28;47258;-52
2022/07/26 10:28:36;;;;;;;;;2.00;2.00;;;;;24.05;41.74;101426.53;4999772;28;45443;-53
2022/07/26 10:31:20;;;;;;;;;3.50;2.50;;;;;24.10;41.54;101424.41;5000883;28;45379;-54
2022/07/26 10:33:50;;;;;;;;;2.75;2.75;;;;;24.17;41.61;101423.09;5000749;28;45474;-53
2022/07/26 10:36:27;;;;;;;;;3.50;2.00;;;;;24.22;41.27;101423.69;5000580;28;46291;-51
2022/07/26 10:39:09;;;;;;;;;3.00;3.00;;;;;24.28;41.11;101420.63;5000522;28;45353;-53
2022/07/26 10:41:41;;;;;;;;;1.75;1.50;;;;;24.32;41.29;101427.50;5000843;28;45292;-53
2022/07/26 10:44:24;;;;;;;;;2.75;2.75;;;;;24.33;40.62;101428.41;5000520;28;45321;-54
2022/07/26 10:46:56;;;;;;;;;2.00;1.00;;;;;24.31;40.68;101424.94;5000228;28;46200;-53
2022/07/26 10:49:32;;;;;;;;;5.00;5.00;;;;;24.30;40.69;101432.13;5000702;28;45170;-53
2022/07/26 10:52:19;;;;;;;;;3.25;3.25;;;;;24.27;40.37;101434.16;5013138;28;45330;-53
2022/07/26 10:54:59;;;;;;;;;2.75;2.75;;;;;24.26;40.44;101430.56;5011247;28;45319;-53
2022/07/26 10:57:30;;;;;;;;;2.25;2.00;;;;;24.23;40.33;101428.09;5000355;28;45315;-51
2022/07/26 10:59:57;;;;;;;;;3.25;2.00;;;;;24.22;39.84;101434.41;5015715;28;45424;-53
2022/07/26 11:02:31;;;;;;;;;3.00;2.00;;;;;24.23;40.06;101427.25;5007906;28;45444;-54
2022/07/26 11:04:59;;;;;;;;;3.00;3.00;;;;;24.25;39.83;101419.94;4999106;28;45538;-54
2022/07/26 11:07:25;;;;;;;;;3.50;3.50;;;;;24.30;40.16;101425.88;5000157;28;46253;-52
2022/07/26 11:09:55;;;;;;;;;3.50;2.25;;;;;24.37;39.98;101421.88;4998783;28;45257;-51
2022/07/26 11:12:20;;;;;;;;;3.00;2.50;;;;;24.46;40.44;101425.81;5000585;28;45269;-54
2022/07/26 11:14:46;;;;;;;;;3.00;3.00;;;;;24.58;40.08;101424.16;5000120;28;45325;-53
2022/07/26 11:17:29;;;;;;;;;2.25;1.50;;;;;24.69;40.15;101421.72;5000144;28;45323;-53
2022/07/26 11:19:56;;;;;;;;;3.50;3.50;;;;;24.79;39.86;101412.13;5000116;28;45274;-53
2022/07/26 11:22:30;;;;;;;;;5.50;2.50;;;;;24.91;39.75;101417.66;4999304;28;45454;-53
2022/07/26 11:24:56;;;;;;;;;3.00;3.00;;;;;25.05;39.53;101412.25;4999744;28;45337;-53
2022/07/26 11:27:21;;;;;;;;;6.00;4.50;;;;;25.21;39.20;101401.34;5000216;28;45305;-53
2022/07/26 11:29:47;;;;;;;;;2.00;2.00;;;;;25.40;39.52;101405.56;5000030;28;45311;-54